createdAt,value
2019-06-10T00:00:59.291Z,17.13
2019-06-10T00:01:58.083Z,17.14
2019-06-10T00:02:58.175Z,17.11
2019-06-10T00:03:59.834Z,17.18
2019-06-10T00:04:59.627Z,17.13
2019-06-10T00:06:00.867Z,17.11
2019-06-10T00:07:00.987Z,17.15
2019-06-10T00:08:01.153Z,17.25
2019-06-10T00:09:01.594Z,17.23
2019-06-10T00:10:00.831Z,17.22
2019-06-10T00:10:58.935Z,17.15
2019-06-10T00:12:01.527Z,17.18
2019-06-10T00:13:02.093Z,17.23
2019-06-10T00:14:01.171Z,17.15
2019-06-10T00:15:01.319Z,17.23
2019-06-10T00:16:02.727Z,17.15
2019-06-10T00:17:01.516Z,17.13
2019-06-10T00:18:19.008Z,17.08
2019-06-10T00:19:02.793Z,17.11
2019-06-10T00:20:01.931Z,17.18
2019-06-10T00:21:03.271Z,17.11
2019-06-10T00:22:02.494Z,17.23
2019-06-10T00:23:02.111Z,17.22
2019-06-10T00:24:02.597Z,17.13
2019-06-10T00:25:03.560Z,17.14
2019-06-10T00:26:03.234Z,17.10
2019-06-10T00:27:02.842Z,17.22
2019-06-10T00:28:02.581Z,17.14
2019-06-10T00:29:02.731Z,17.14
2019-06-10T00:30:04.328Z,17.18
2019-06-10T00:31:02.400Z,17.26
2019-06-10T00:32:03.264Z,17.13
2019-06-10T00:33:03.145Z,17.13
2019-06-10T00:34:03.073Z,17.30
2019-06-10T00:35:03.167Z,17.10
2019-06-10T00:36:05.111Z,17.28
2019-06-10T00:37:02.637Z,17.17
2019-06-10T00:38:05.275Z,17.23
2019-06-10T00:39:03.531Z,17.15
2019-06-10T00:40:03.573Z,17.11
2019-06-10T00:41:03.880Z,17.11
2019-06-10T00:42:03.192Z,17.11
2019-06-10T00:43:03.796Z,17.15
2019-06-10T00:44:03.795Z,16.90
2019-06-10T00:45:05.344Z,16.89
2019-06-10T00:46:04.149Z,16.75
2019-06-10T00:47:04.797Z,16.70
2019-06-10T00:48:13.616Z,16.58
2019-06-10T00:49:04.601Z,16.49
2019-06-10T00:50:03.966Z,16.52
2019-06-10T00:51:04.201Z,16.30
2019-06-10T00:52:04.283Z,16.20
2019-06-10T00:53:04.485Z,16.27
2019-06-10T00:54:04.939Z,16.40
2019-06-10T00:55:04.567Z,16.48
2019-06-10T00:56:05.129Z,16.49
2019-06-10T00:57:04.388Z,16.48
2019-06-10T00:58:04.121Z,16.65
2019-06-10T00:59:04.111Z,16.65
2019-06-10T01:00:14.582Z,16.78
2019-06-10T01:01:04.265Z,16.77
2019-06-10T01:02:05.046Z,16.86
2019-06-10T01:03:03.988Z,16.78
2019-06-10T01:04:05.479Z,16.86
2019-06-10T01:05:05.070Z,16.89
2019-06-10T01:06:04.705Z,17.04
2019-06-10T01:07:04.409Z,17.06
2019-06-10T01:08:04.627Z,17.14
2019-06-10T01:09:04.548Z,17.13
2019-06-10T01:10:04.753Z,17.08
2019-06-10T01:11:10.313Z,17.13
2019-06-10T01:12:04.863Z,17.13
2019-06-10T01:13:05.117Z,17.11
2019-06-10T01:14:05.234Z,17.23
2019-06-10T01:15:05.266Z,17.23
2019-06-10T01:16:05.419Z,17.22
2019-06-10T01:17:05.486Z,17.20
2019-06-10T01:18:05.553Z,17.23
2019-06-10T01:19:05.772Z,17.25
2019-06-10T01:20:05.848Z,17.17
2019-06-10T01:21:05.829Z,17.15
2019-06-10T01:22:06.029Z,17.10
2019-06-10T01:23:06.958Z,17.25
2019-06-10T01:24:06.983Z,17.22
2019-06-10T01:25:07.202Z,17.23
2019-06-10T01:26:07.534Z,17.28
2019-06-10T01:27:07.458Z,17.17
2019-06-10T01:28:06.299Z,17.25
2019-06-10T01:29:07.627Z,17.26
2019-06-10T01:30:12.449Z,17.26
2019-06-10T01:31:10.919Z,17.33
2019-06-10T01:32:07.148Z,17.30
2019-06-10T01:33:06.769Z,17.25
2019-06-10T01:34:07.380Z,17.32
2019-06-10T01:35:06.961Z,17.29
2019-06-10T01:36:07.670Z,17.26
2019-06-10T01:37:07.159Z,17.15
2019-06-10T01:38:07.838Z,17.13
2019-06-10T01:39:07.341Z,17.08
2019-06-10T01:40:07.966Z,16.96
2019-06-10T01:41:08.189Z,16.86
2019-06-10T01:42:08.239Z,16.74
2019-06-10T01:43:08.294Z,16.74
2019-06-10T01:44:08.469Z,16.68
2019-06-10T01:45:09.110Z,16.77
2019-06-10T01:46:08.735Z,16.74
2019-06-10T01:47:08.721Z,16.81
2019-06-10T01:48:08.811Z,16.86
2019-06-10T01:49:09.537Z,16.92
2019-06-10T01:50:09.566Z,16.88
2019-06-10T01:51:09.052Z,16.92
2019-06-10T01:52:09.352Z,16.93
2019-06-10T01:53:10.102Z,16.86
2019-06-10T01:54:10.016Z,16.59
2019-06-10T01:55:11.860Z,16.50
2019-06-10T01:56:10.375Z,16.52
2019-06-10T01:57:11.930Z,16.58
2019-06-10T01:58:10.675Z,16.63
2019-06-10T01:59:12.162Z,16.68
2019-06-10T02:00:13.412Z,16.77
2019-06-10T02:01:13.451Z,16.77
2019-06-10T02:02:12.230Z,16.81
2019-06-10T02:03:13.282Z,16.80
2019-06-10T02:04:13.083Z,16.83
2019-06-10T02:05:12.966Z,16.88
2019-06-10T02:06:15.685Z,16.88
2019-06-10T02:07:12.085Z,16.92
2019-06-10T02:08:11.743Z,16.86
2019-06-10T02:09:13.478Z,16.80
2019-06-10T02:10:12.433Z,16.81
2019-06-10T02:11:14.036Z,16.86
2019-06-10T02:12:12.813Z,16.90
2019-06-10T02:13:12.097Z,16.88
2019-06-10T02:14:14.727Z,16.88
2019-06-10T02:15:13.480Z,16.99
2019-06-10T02:16:14.179Z,16.96
2019-06-10T02:17:13.070Z,17.00
2019-06-10T02:18:13.509Z,16.99
2019-06-10T02:19:13.970Z,16.99
2019-06-10T02:20:13.920Z,17.03
2019-06-10T02:21:14.534Z,16.98
2019-06-10T02:22:13.629Z,17.00
2019-06-10T02:23:14.122Z,17.10
2019-06-10T02:24:14.309Z,17.04
2019-06-10T02:25:12.553Z,16.98
2019-06-10T02:26:14.855Z,17.06
2019-06-10T02:27:14.264Z,16.80
2019-06-10T02:28:14.581Z,16.78
2019-06-10T02:29:14.022Z,16.73
2019-06-10T02:30:20.576Z,16.48
2019-06-10T02:31:15.187Z,16.45
2019-06-10T02:32:17.494Z,16.42
2019-06-10T02:33:16.825Z,16.44
2019-06-10T02:34:17.152Z,16.45
2019-06-10T02:35:23.076Z,16.48
2019-06-10T02:36:15.878Z,16.55
2019-06-10T02:37:17.022Z,16.67
2019-06-10T02:38:17.521Z,16.59
2019-06-10T02:39:17.345Z,16.71
2019-06-10T02:40:16.594Z,16.71
2019-06-10T02:41:17.492Z,16.73
2019-06-10T02:42:17.286Z,16.58
2019-06-10T02:43:17.816Z,16.53
2019-06-10T02:44:17.267Z,16.60
2019-06-10T02:45:17.967Z,16.49
2019-06-10T02:46:17.289Z,16.34
2019-06-10T02:47:18.255Z,16.18
2019-06-10T02:48:17.660Z,16.01
2019-06-10T02:49:30.193Z,15.92
2019-06-10T02:50:17.231Z,15.96
2019-06-10T02:51:15.848Z,16.03
2019-06-10T02:52:17.600Z,16.07
2019-06-10T02:53:15.856Z,16.26
2019-06-10T02:54:18.088Z,16.25
2019-06-10T02:55:16.272Z,16.33
2019-06-10T02:56:17.178Z,16.37
2019-06-10T02:57:18.065Z,16.41
2019-06-10T02:58:15.713Z,16.50
2019-06-10T02:59:16.317Z,16.56
2019-06-10T03:00:24.722Z,16.55
2019-06-10T03:01:16.999Z,16.59
2019-06-10T03:02:30.071Z,16.70
2019-06-10T03:03:22.875Z,16.71
2019-06-10T03:04:16.364Z,16.73
2019-06-10T03:05:17.561Z,16.70
2019-06-10T03:06:17.939Z,16.73
2019-06-10T03:07:15.907Z,16.73
2019-06-10T03:08:16.217Z,16.75
2019-06-10T03:09:16.631Z,16.78
2019-06-10T03:10:16.576Z,16.88
2019-06-10T03:11:16.554Z,16.83
2019-06-10T03:12:16.311Z,16.86
2019-06-10T03:13:17.577Z,16.93
2019-06-10T03:14:17.671Z,16.98
2019-06-10T03:15:17.784Z,16.98
2019-06-10T03:16:17.734Z,17.00
2019-06-10T03:17:17.774Z,16.92
2019-06-10T03:18:17.811Z,16.96
2019-06-10T03:19:33.275Z,16.93
2019-06-10T03:20:17.892Z,16.92
2019-06-10T03:21:17.951Z,16.98
2019-06-10T03:22:17.983Z,17.07
2019-06-10T03:23:17.981Z,17.15
2019-06-10T03:24:17.443Z,17.10
2019-06-10T03:25:18.326Z,17.18
2019-06-10T03:26:17.633Z,17.15
2019-06-10T03:27:18.362Z,17.20
2019-06-10T03:28:17.824Z,17.07
2019-06-10T03:29:18.562Z,17.14
2019-06-10T03:30:28.666Z,17.20
2019-06-10T03:31:18.794Z,17.07
2019-06-10T03:32:20.110Z,17.11
2019-06-10T03:33:20.175Z,17.08
2019-06-10T03:34:21.883Z,17.08
2019-06-10T03:35:19.249Z,17.22
2019-06-10T03:36:18.585Z,17.18
2019-06-10T03:37:18.681Z,17.20
2019-06-10T03:38:18.777Z,17.23
2019-06-10T03:39:18.873Z,17.25
2019-06-10T03:40:18.968Z,17.32
2019-06-10T03:41:19.062Z,17.32
2019-06-10T03:42:19.157Z,17.32
2019-06-10T03:43:19.252Z,17.30
2019-06-10T03:44:19.347Z,17.26
2019-06-10T03:45:19.445Z,17.28
2019-06-10T03:46:19.556Z,17.40
2019-06-10T03:47:19.634Z,17.30
2019-06-10T03:48:19.727Z,17.50
2019-06-10T03:49:19.823Z,17.32
2019-06-10T03:50:21.886Z,17.33
2019-06-10T03:51:21.180Z,17.44
2019-06-10T03:52:22.475Z,17.40
2019-06-10T03:53:21.910Z,17.43
2019-06-10T03:54:24.370Z,17.46
2019-06-10T03:55:22.967Z,17.47
2019-06-10T03:56:23.274Z,17.46
2019-06-10T03:57:23.759Z,17.43
2019-06-10T03:58:22.050Z,17.48
2019-06-10T03:59:23.971Z,17.44
2019-06-10T04:00:22.054Z,17.50
2019-06-10T04:01:24.335Z,17.47
2019-06-10T04:02:23.609Z,17.55
2019-06-10T04:03:24.262Z,17.53
2019-06-10T04:04:23.437Z,17.48
2019-06-10T04:05:23.915Z,17.59
2019-06-10T04:06:22.189Z,17.54
2019-06-10T04:07:27.340Z,17.51
2019-06-10T04:08:23.302Z,17.51
2019-06-10T04:09:23.921Z,17.57
2019-06-10T04:10:24.402Z,17.55
2019-06-10T04:11:24.084Z,17.62
2019-06-10T04:12:24.264Z,17.63
2019-06-10T04:13:24.224Z,17.57
2019-06-10T04:14:23.905Z,17.69
2019-06-10T04:15:24.870Z,17.67
2019-06-10T04:16:24.209Z,17.73
2019-06-10T04:17:24.098Z,17.73
2019-06-10T04:18:25.985Z,17.73
2019-06-10T04:19:24.270Z,17.74
2019-06-10T04:20:25.052Z,17.73
2019-06-10T04:21:25.391Z,17.84
2019-06-10T04:22:25.195Z,17.84
2019-06-10T04:23:25.245Z,17.95
2019-06-10T04:24:25.086Z,17.82
2019-06-10T04:25:25.283Z,17.85
2019-06-10T04:26:25.245Z,17.82
2019-06-10T04:27:25.266Z,17.84
2019-06-10T04:28:25.816Z,17.87
2019-06-10T04:29:25.798Z,17.88
2019-06-10T04:30:26.102Z,17.85
2019-06-10T04:31:25.457Z,17.95
2019-06-10T04:32:25.746Z,18.06
2019-06-10T04:33:25.795Z,18.02
2019-06-10T04:34:27.281Z,18.04
2019-06-10T04:35:26.101Z,18.06
2019-06-10T04:36:26.028Z,17.92
2019-06-10T04:37:26.177Z,18.00
2019-06-10T04:38:25.988Z,17.92
2019-06-10T04:39:26.407Z,18.03
2019-06-10T04:40:26.023Z,18.06
2019-06-10T04:41:26.493Z,18.02
2019-06-10T04:42:26.096Z,18.07
2019-06-10T04:43:26.342Z,18.04
2019-06-10T04:44:26.380Z,18.09
2019-06-10T04:45:26.523Z,18.15
2019-06-10T04:46:26.526Z,18.13
2019-06-10T04:47:26.789Z,18.18
2019-06-10T04:48:26.552Z,18.22
2019-06-10T04:49:27.085Z,18.22
2019-06-10T04:50:36.360Z,18.24
2019-06-10T04:51:26.877Z,18.19
2019-06-10T04:52:26.708Z,18.18
2019-06-10T04:53:26.746Z,18.13
2019-06-10T04:54:27.011Z,18.21
2019-06-10T04:55:26.556Z,18.19
2019-06-10T04:56:27.848Z,18.15
2019-06-10T04:57:26.913Z,18.27
2019-06-10T04:58:27.594Z,18.27
2019-06-10T04:59:28.746Z,18.29
2019-06-10T05:00:27.658Z,18.28
2019-06-10T05:01:28.305Z,18.28
2019-06-10T05:02:28.454Z,18.24
2019-06-10T05:03:28.044Z,18.24
2019-06-10T05:04:28.442Z,18.39
2019-06-10T05:05:28.474Z,18.34
2019-06-10T05:06:28.371Z,18.33
2019-06-10T05:07:32.025Z,18.42
2019-06-10T05:08:28.490Z,18.40
2019-06-10T05:09:29.054Z,18.43
2019-06-10T05:10:28.350Z,18.36
2019-06-10T05:11:28.947Z,18.42
2019-06-10T05:12:28.012Z,18.50
2019-06-10T05:13:28.382Z,18.57
2019-06-10T05:14:29.120Z,18.59
2019-06-10T05:15:29.870Z,18.54
2019-06-10T05:16:30.872Z,18.58
2019-06-10T05:17:30.632Z,18.65
2019-06-10T05:18:29.080Z,18.65
2019-06-10T05:19:29.498Z,18.74
2019-06-10T05:20:46.783Z,18.70
2019-06-10T05:21:29.770Z,18.68
2019-06-10T05:22:29.949Z,18.79
2019-06-10T05:23:29.930Z,18.83
2019-06-10T05:24:30.105Z,18.82
2019-06-10T05:25:30.171Z,18.83
2019-06-10T05:26:30.483Z,18.82
2019-06-10T05:27:30.821Z,18.91
2019-06-10T05:28:30.298Z,18.95
2019-06-10T05:29:29.931Z,18.92
2019-06-10T05:30:30.862Z,19.06
2019-06-10T05:31:31.027Z,19.02
2019-06-10T05:32:31.154Z,18.97
2019-06-10T05:33:30.601Z,18.95
2019-06-10T05:34:30.857Z,18.98
2019-06-10T05:35:31.144Z,19.06
2019-06-10T05:36:33.869Z,19.11
2019-06-10T05:37:31.620Z,19.14
2019-06-10T05:38:34.597Z,19.21
2019-06-10T05:39:30.769Z,19.20
2019-06-10T05:40:33.794Z,19.24
2019-06-10T05:41:34.794Z,19.20
2019-06-10T05:42:33.541Z,19.40
2019-06-10T05:43:34.251Z,19.38
2019-06-10T05:44:34.182Z,19.40
2019-06-10T05:45:32.718Z,19.39
2019-06-10T05:46:34.693Z,19.60
2019-06-10T05:47:34.247Z,19.72
2019-06-10T05:48:33.667Z,19.66
2019-06-10T05:49:34.179Z,19.73
2019-06-10T05:50:33.564Z,19.86
2019-06-10T05:51:35.086Z,19.91
2019-06-10T05:52:33.846Z,19.84
2019-06-10T05:53:34.989Z,19.90
2019-06-10T05:54:34.039Z,19.76
2019-06-10T05:55:33.729Z,19.75
2019-06-10T05:56:35.160Z,20.21
2019-06-10T05:57:34.154Z,20.53
2019-06-10T05:58:34.495Z,21.08
2019-06-10T05:59:35.465Z,21.29
2019-06-10T06:00:34.968Z,21.67
2019-06-10T06:01:37.958Z,22.17
2019-06-10T06:02:35.071Z,22.65
2019-06-10T06:03:35.268Z,23.07
2019-06-10T06:04:34.688Z,23.64
2019-06-10T06:05:34.846Z,24.00
2019-06-10T06:06:35.175Z,24.35
2019-06-10T06:07:35.238Z,24.68
2019-06-10T06:08:35.331Z,24.94
2019-06-10T06:09:35.249Z,25.30
2019-06-10T06:10:35.509Z,25.42
2019-06-10T06:11:35.253Z,25.68
2019-06-10T06:12:35.582Z,25.91
2019-06-10T06:13:35.934Z,26.20
2019-06-10T06:14:35.931Z,26.46
2019-06-10T06:15:35.813Z,26.47
2019-06-10T06:16:36.060Z,26.57
2019-06-10T06:17:35.376Z,26.37
2019-06-10T06:18:36.435Z,26.20
2019-06-10T06:19:37.289Z,25.75
2019-06-10T06:20:35.994Z,25.43
2019-06-10T06:21:40.267Z,25.00
2019-06-10T06:22:35.686Z,24.98
2019-06-10T06:23:36.671Z,24.94
2019-06-10T06:24:35.699Z,24.83
2019-06-10T06:25:39.776Z,24.77
2019-06-10T06:26:38.050Z,24.42
2019-06-10T06:27:36.690Z,24.20
2019-06-10T06:28:36.135Z,24.22
2019-06-10T06:29:37.043Z,24.20
2019-06-10T06:30:36.431Z,24.24
2019-06-10T06:31:36.497Z,24.29
2019-06-10T06:32:36.957Z,24.26
2019-06-10T06:33:38.500Z,24.05
2019-06-10T06:34:38.694Z,23.87
2019-06-10T06:35:42.703Z,23.79
2019-06-10T06:36:37.024Z,23.89
2019-06-10T06:37:38.142Z,23.98
2019-06-10T06:38:37.177Z,24.00
2019-06-10T06:39:37.066Z,23.95
2019-06-10T06:40:37.585Z,24.02
2019-06-10T06:41:37.590Z,24.17
2019-06-10T06:42:38.216Z,24.17
2019-06-10T06:43:41.559Z,24.22
2019-06-10T06:44:38.122Z,24.22
2019-06-10T06:45:37.753Z,24.07
2019-06-10T06:46:39.507Z,24.00
2019-06-10T06:47:38.717Z,24.05
2019-06-10T06:48:40.000Z,24.22
2019-06-10T06:49:38.634Z,24.31
2019-06-10T06:50:57.294Z,24.38
2019-06-10T06:51:49.462Z,24.53
2019-06-10T06:53:09.233Z,24.60
2019-06-10T06:53:45.385Z,24.52
2019-06-10T06:54:39.355Z,24.59
2019-06-10T06:55:38.459Z,24.69
2019-06-10T06:56:39.281Z,24.71
2019-06-10T06:57:39.782Z,24.77
2019-06-10T06:58:38.904Z,24.82
2019-06-10T06:59:39.114Z,24.83
2019-06-10T07:00:59.335Z,24.76
2019-06-10T07:01:39.583Z,24.67
2019-06-10T07:02:40.277Z,24.52
2019-06-10T07:03:40.898Z,24.41
2019-06-10T07:04:40.226Z,24.26
2019-06-10T07:05:40.377Z,24.29
2019-06-10T07:06:40.277Z,24.38
2019-06-10T07:07:40.429Z,24.41
2019-06-10T07:08:40.761Z,24.47
2019-06-10T07:09:41.172Z,24.24
2019-06-10T07:10:40.794Z,24.22
2019-06-10T07:11:41.130Z,24.19
2019-06-10T07:12:41.057Z,24.23
2019-06-10T07:13:43.409Z,24.23
2019-06-10T07:14:40.850Z,24.13
2019-06-10T07:15:42.162Z,24.19
2019-06-10T07:16:44.234Z,24.13
2019-06-10T07:17:41.605Z,24.14
2019-06-10T07:18:46.585Z,24.14
2019-06-10T07:19:42.081Z,23.86
2019-06-10T07:20:41.626Z,23.87
2019-06-10T07:22:02.269Z,23.89
2019-06-10T07:22:42.766Z,23.94
2019-06-10T07:23:45.201Z,23.89
2019-06-10T07:24:46.810Z,24.02
2019-06-10T07:25:45.497Z,24.00
2019-06-10T07:26:49.419Z,24.01
2019-06-10T07:27:45.175Z,24.10
2019-06-10T07:28:45.697Z,24.02
2019-06-10T07:29:46.949Z,24.07
2019-06-10T07:30:47.261Z,23.97
2019-06-10T07:31:44.173Z,24.10
2019-06-10T07:32:46.835Z,24.12
2019-06-10T07:33:45.818Z,24.29
2019-06-10T07:34:44.970Z,24.16
2019-06-10T07:35:44.125Z,23.92
2019-06-10T07:36:44.056Z,23.95
2019-06-10T07:37:44.509Z,23.85
2019-06-10T07:38:48.196Z,23.97
2019-06-10T07:39:45.167Z,24.02
2019-06-10T07:40:45.583Z,24.07
2019-06-10T07:41:47.443Z,24.05
2019-06-10T07:42:44.111Z,24.17
2019-06-10T07:43:49.315Z,24.13
2019-06-10T07:44:44.016Z,24.16
2019-06-10T07:45:47.597Z,24.19
2019-06-10T07:46:45.186Z,24.23
2019-06-10T07:47:45.187Z,24.17
2019-06-10T07:48:47.863Z,24.20
2019-06-10T07:49:44.365Z,24.17
2019-06-10T07:50:45.597Z,24.13
2019-06-10T07:51:46.127Z,23.92
2019-06-10T07:52:46.587Z,23.85
2019-06-10T07:53:46.553Z,23.76
2019-06-10T07:54:45.254Z,23.85
2019-06-10T07:55:46.426Z,23.65
2019-06-10T07:56:50.219Z,23.68
2019-06-10T07:57:45.554Z,23.64
2019-06-10T07:58:47.409Z,23.58
2019-06-10T07:59:45.785Z,23.52
2019-06-10T08:00:48.072Z,23.47
2019-06-10T08:01:50.868Z,23.49
2019-06-10T08:02:46.156Z,23.47
2019-06-10T08:03:46.598Z,23.49
2019-06-10T08:04:46.077Z,23.45
2019-06-10T08:05:46.538Z,23.43
2019-06-10T08:06:45.869Z,23.50
2019-06-10T08:07:48.534Z,23.50
2019-06-10T08:08:45.522Z,23.53
2019-06-10T08:09:45.864Z,23.71
2019-06-10T08:10:46.317Z,23.86
2019-06-10T08:11:47.359Z,24.17
2019-06-10T08:12:46.934Z,24.29
2019-06-10T08:13:46.469Z,24.35
2019-06-10T08:14:46.059Z,24.32
2019-06-10T08:15:46.326Z,24.50
2019-06-10T08:16:46.777Z,24.63
2019-06-10T08:17:46.359Z,24.75
2019-06-10T08:19:14.007Z,24.88
2019-06-10T08:19:50.597Z,24.87
2019-06-10T08:20:47.626Z,24.94
2019-06-10T08:21:49.216Z,24.95
2019-06-10T08:22:52.510Z,24.91
2019-06-10T08:23:48.508Z,24.98
2019-06-10T08:24:47.855Z,24.94
2019-06-10T08:25:53.357Z,24.73
2019-06-10T08:26:47.778Z,24.69
2019-06-10T08:27:49.059Z,24.63
2019-06-10T08:28:48.307Z,24.54
2019-06-10T08:29:49.652Z,24.32
2019-06-10T08:30:48.268Z,24.35
2019-06-10T08:31:49.923Z,24.35
2019-06-10T08:32:52.190Z,24.35
2019-06-10T08:33:49.154Z,24.39
2019-06-10T08:34:48.254Z,24.56
2019-06-10T08:35:56.024Z,24.49
2019-06-10T08:36:50.544Z,24.53
2019-06-10T08:37:48.404Z,24.68
2019-06-10T08:38:48.831Z,24.71
2019-06-10T08:39:48.612Z,24.75
2019-06-10T08:40:48.714Z,24.82
2019-06-10T08:41:49.320Z,24.75
2019-06-10T08:42:48.970Z,24.91
2019-06-10T08:43:49.016Z,24.95
2019-06-10T08:44:49.136Z,24.95
2019-06-10T08:45:49.226Z,24.83
2019-06-10T08:46:49.317Z,24.91
2019-06-10T08:47:49.417Z,24.94
2019-06-10T08:48:49.665Z,25.20
2019-06-10T08:49:49.632Z,25.30
2019-06-10T08:50:50.201Z,25.35
2019-06-10T08:51:50.353Z,25.39
2019-06-10T08:53:05.741Z,25.37
2019-06-10T08:53:50.214Z,25.34
2019-06-10T08:54:54.042Z,25.52
2019-06-10T08:55:50.350Z,25.53
2019-06-10T08:56:53.418Z,25.52
2019-06-10T08:57:51.618Z,25.54
2019-06-10T08:58:51.601Z,25.32
2019-06-10T08:59:53.169Z,25.42
2019-06-10T09:00:53.288Z,25.30
2019-06-10T09:01:56.563Z,25.35
2019-06-10T09:02:53.771Z,25.28
2019-06-10T09:03:53.450Z,25.22
2019-06-10T09:04:53.626Z,25.34
2019-06-10T09:05:53.878Z,25.49
2019-06-10T09:06:53.661Z,25.65
2019-06-10T09:07:54.331Z,25.59
2019-06-10T09:08:54.465Z,25.77
2019-06-10T09:09:54.015Z,25.74
2019-06-10T09:10:54.804Z,25.65
2019-06-10T09:11:54.592Z,25.64
2019-06-10T09:12:54.547Z,25.61
2019-06-10T09:13:53.267Z,25.47
2019-06-10T09:14:53.187Z,25.49
2019-06-10T09:16:10.484Z,25.46
2019-06-10T09:16:54.324Z,25.54
2019-06-10T09:17:56.121Z,25.69
2019-06-10T09:18:55.217Z,25.72
2019-06-10T09:19:54.241Z,25.79
2019-06-10T09:20:55.839Z,25.69
2019-06-10T09:21:56.176Z,25.83
2019-06-10T09:23:13.855Z,25.69
2019-06-10T09:23:59.742Z,25.69
2019-06-10T09:24:56.407Z,25.50
2019-06-10T09:25:57.333Z,25.39
2019-06-10T09:26:54.979Z,25.38
2019-06-10T09:27:54.757Z,25.47
2019-06-10T09:28:56.461Z,25.54
2019-06-10T09:29:55.508Z,25.64
2019-06-10T09:30:58.934Z,25.69
2019-06-10T09:31:55.786Z,25.72
2019-06-10T09:32:56.869Z,25.84
2019-06-10T09:33:56.788Z,25.84
2019-06-10T09:34:57.364Z,25.72
2019-06-10T09:35:55.064Z,25.89
2019-06-10T09:36:56.855Z,25.86
2019-06-10T09:37:55.614Z,25.98
2019-06-10T09:38:55.732Z,25.83
2019-06-10T09:39:59.413Z,25.94
2019-06-10T09:41:01.307Z,26.08
2019-06-10T09:42:01.517Z,26.02
2019-06-10T09:42:55.238Z,26.02
2019-06-10T09:43:57.040Z,25.99
2019-06-10T09:44:55.756Z,25.97
2019-06-10T09:45:56.516Z,26.05
2019-06-10T09:46:56.067Z,26.12
2019-06-10T09:47:59.956Z,26.20
2019-06-10T09:48:56.153Z,26.18
2019-06-10T09:49:55.932Z,26.18
2019-06-10T09:50:58.662Z,26.05
2019-06-10T09:51:57.436Z,26.18
2019-06-10T09:52:57.146Z,26.31
2019-06-10T09:54:03.141Z,26.35
2019-06-10T09:54:56.916Z,26.37
2019-06-10T09:55:56.351Z,26.37
2019-06-10T09:56:56.452Z,26.22
2019-06-10T09:57:59.906Z,26.17
2019-06-10T09:58:56.660Z,26.04
2019-06-10T09:59:56.873Z,25.84
2019-06-10T10:00:58.008Z,25.84
2019-06-10T10:02:00.026Z,26.01
2019-06-10T10:02:57.060Z,26.15
2019-06-10T10:04:00.265Z,26.18
2019-06-10T10:04:58.549Z,26.25
2019-06-10T10:06:10.006Z,26.20
2019-06-10T10:06:57.630Z,26.18
2019-06-10T10:07:57.571Z,26.25
2019-06-10T10:08:58.515Z,26.42
2019-06-10T10:09:57.783Z,26.37
2019-06-10T10:10:58.925Z,26.50
2019-06-10T10:11:57.978Z,26.55
2019-06-10T10:12:58.089Z,26.58
2019-06-10T10:13:58.187Z,26.59
2019-06-10T10:14:58.286Z,26.52
2019-06-10T10:15:58.401Z,26.55
2019-06-10T10:17:00.483Z,26.67
2019-06-10T10:17:58.582Z,26.72
2019-06-10T10:19:00.527Z,26.61
2019-06-10T10:19:58.797Z,26.39
2019-06-10T10:21:00.449Z,26.49
2019-06-10T10:21:59.060Z,26.49
2019-06-10T10:22:59.097Z,26.64
2019-06-10T10:24:06.942Z,26.72
2019-06-10T10:24:59.295Z,26.80
2019-06-10T10:25:59.398Z,26.95
2019-06-10T10:27:01.869Z,26.92
2019-06-10T10:27:59.615Z,26.91
2019-06-10T10:29:02.643Z,26.96
2019-06-10T10:29:59.817Z,26.89
2019-06-10T10:30:59.919Z,26.99
2019-06-10T10:32:02.448Z,26.81
2019-06-10T10:33:02.651Z,27.02
2019-06-10T10:34:02.568Z,27.02
2019-06-10T10:35:03.057Z,27.11
2019-06-10T10:36:02.593Z,27.04
2019-06-10T10:37:02.740Z,26.91
2019-06-10T10:38:03.710Z,26.87
2019-06-10T10:39:02.445Z,26.79
2019-06-10T10:40:03.220Z,27.02
2019-06-10T10:41:04.212Z,27.11
2019-06-10T10:42:03.141Z,27.17
2019-06-10T10:43:19.831Z,27.24
2019-06-10T10:44:03.163Z,27.24
2019-06-10T10:45:02.724Z,27.24
2019-06-10T10:46:05.500Z,27.35
2019-06-10T10:47:03.667Z,27.36
2019-06-10T10:48:02.547Z,27.33
2019-06-10T10:49:02.723Z,27.43
2019-06-10T10:50:02.786Z,27.53
2019-06-10T10:51:03.470Z,27.67
2019-06-10T10:52:02.655Z,27.54
2019-06-10T10:53:02.194Z,27.61
2019-06-10T10:54:20.838Z,27.64
2019-06-10T10:55:06.608Z,27.67
2019-06-10T10:56:02.629Z,27.71
2019-06-10T10:57:02.762Z,27.82
2019-06-10T10:58:03.215Z,27.95
2019-06-10T10:59:02.817Z,27.96
2019-06-10T11:00:03.298Z,27.98
2019-06-10T11:01:04.259Z,28.09
2019-06-10T11:02:03.126Z,28.14
2019-06-10T11:03:03.350Z,28.33
2019-06-10T11:04:03.908Z,28.38
2019-06-10T11:05:03.444Z,28.48
2019-06-10T11:06:03.550Z,28.53
2019-06-10T11:07:03.650Z,28.62
2019-06-10T11:08:04.351Z,28.96
2019-06-10T11:09:03.859Z,29.01
2019-06-10T11:10:04.550Z,29.23
2019-06-10T11:11:05.729Z,29.22
2019-06-10T11:12:04.167Z,29.28
2019-06-10T11:13:04.277Z,29.18
2019-06-10T11:14:04.380Z,29.28
2019-06-10T11:15:05.066Z,29.16
2019-06-10T11:16:04.589Z,29.19
2019-06-10T11:17:04.688Z,29.19
2019-06-10T11:18:04.790Z,29.20
2019-06-10T11:19:04.897Z,29.15
2019-06-10T11:20:04.992Z,29.22
2019-06-10T11:21:05.427Z,29.04
2019-06-10T11:22:05.189Z,29.07
2019-06-10T11:23:05.310Z,29.26
2019-06-10T11:24:05.404Z,29.25
2019-06-10T11:25:05.510Z,29.38
2019-06-10T11:26:05.614Z,29.28
2019-06-10T11:27:05.713Z,29.15
2019-06-10T11:28:06.440Z,29.20
2019-06-10T11:29:05.914Z,29.18
2019-06-10T11:30:06.018Z,29.08
2019-06-10T11:31:06.128Z,29.16
2019-06-10T11:32:06.235Z,29.00
2019-06-10T11:33:06.444Z,28.88
2019-06-10T11:34:06.494Z,28.70
2019-06-10T11:35:06.599Z,28.59
2019-06-10T11:36:06.702Z,28.62
2019-06-10T11:37:06.808Z,28.51
2019-06-10T11:38:06.908Z,28.44
2019-06-10T11:39:07.011Z,28.46
2019-06-10T11:40:07.119Z,28.59
2019-06-10T11:41:07.648Z,28.62
2019-06-10T11:42:07.326Z,28.65
2019-06-10T11:43:07.433Z,28.58
2019-06-10T11:44:07.533Z,28.56
2019-06-10T11:45:07.637Z,28.56
2019-06-10T11:46:08.189Z,28.56
2019-06-10T11:47:07.844Z,28.56
2019-06-10T11:48:07.947Z,28.63
2019-06-10T11:49:08.052Z,28.82
2019-06-10T11:50:08.141Z,28.93
2019-06-10T11:51:08.271Z,28.90
2019-06-10T11:52:08.357Z,29.08
2019-06-10T11:53:08.460Z,29.13
2019-06-10T11:54:08.564Z,29.31
2019-06-10T11:55:15.236Z,29.43
2019-06-10T11:56:08.767Z,29.52
2019-06-10T11:57:08.865Z,29.49
2019-06-10T11:58:08.974Z,29.53
2019-06-10T11:59:10.024Z,29.28
2019-06-10T12:00:14.806Z,29.31
2019-06-10T12:01:09.299Z,29.35
2019-06-10T12:02:09.394Z,29.50
2019-06-10T12:03:09.485Z,29.25
2019-06-10T12:04:09.602Z,29.31
2019-06-10T12:05:09.697Z,29.29
2019-06-10T12:06:09.805Z,29.33
2019-06-10T12:07:09.904Z,29.29
2019-06-10T12:08:12.810Z,29.28
2019-06-10T12:09:10.112Z,29.26
2019-06-10T12:10:12.663Z,29.20
2019-06-10T12:11:12.617Z,29.18
2019-06-10T12:12:12.670Z,29.15
2019-06-10T12:13:10.525Z,28.91
2019-06-10T12:14:12.891Z,28.90
2019-06-10T12:15:12.170Z,28.87
2019-06-10T12:17:05.723Z,28.77
2019-06-10T12:17:35.009Z,28.77
2019-06-10T12:18:13.187Z,28.81
2019-06-10T12:19:12.786Z,28.84
2019-06-10T12:20:13.255Z,28.88
2019-06-10T12:21:13.086Z,28.87
2019-06-10T12:22:13.366Z,29.01
2019-06-10T12:23:12.720Z,29.10
2019-06-10T12:24:12.672Z,29.16
2019-06-10T12:25:31.277Z,29.23
2019-06-10T12:26:11.881Z,29.19
2019-06-10T12:27:13.109Z,29.23
2019-06-10T12:28:12.899Z,29.28
2019-06-10T12:29:12.535Z,29.15
2019-06-10T12:30:13.334Z,29.08
2019-06-10T12:31:13.514Z,29.22
2019-06-10T12:32:13.496Z,29.01
2019-06-10T12:33:19.935Z,29.19
2019-06-10T12:34:12.753Z,29.25
2019-06-10T12:35:13.728Z,28.80
2019-06-10T12:36:13.072Z,28.78
2019-06-10T12:37:15.939Z,28.82
2019-06-10T12:38:13.942Z,28.96
2019-06-10T12:39:17.027Z,29.04
2019-06-10T12:40:13.990Z,29.07
2019-06-10T12:41:14.120Z,29.16
2019-06-10T12:42:14.318Z,29.13
2019-06-10T12:43:13.711Z,29.19
2019-06-10T12:44:13.814Z,29.28
2019-06-10T12:45:13.921Z,29.10
2019-06-10T12:46:14.042Z,29.15
2019-06-10T12:47:14.147Z,29.16
2019-06-10T12:48:14.252Z,29.01
2019-06-10T12:49:18.261Z,29.08
2019-06-10T12:50:14.461Z,29.11
2019-06-10T12:51:14.567Z,29.18
2019-06-10T12:52:14.673Z,29.06
2019-06-10T12:53:14.779Z,29.16
2019-06-10T12:54:14.881Z,29.20